Terminal Aerodrome Forecast
Issued by NWS

Home | Current Version | Previous Version | Text Only | Print | Product List | Glossary On
Versions: 1 2 3 4 5 6 7 8 9 10 11 12 13 14 15 16 17 18 19 20 21 22 23 24 25 26 27 28
008
FTUS43 KLOT 220520
TAFORD
TAF
KORD 220520Z 2206/2312 12005KT 1/4SM FG OVC002
     FM220900 13007KT 1SM SHRA BR OVC004
      TEMPO 2210/2213 -TSRA BR OVC003CB
     FM221400 16010KT 1SM BR OVC004
     FM222000 19012G18KT 2SM -SHRA BR SCT007 OVC015
     FM230300 23008KT 1SM BR VCSH SCT007 OVC012=

USA.gov is the U.S. government's official web portal to all federal, state and local government web resources and services.